Time;durP1;ratioP1;P1;durP2;ratioP2;P2;SDS_P1;SDS_P2;PMS_P1;PMS_P2;Temp;Humidity;BMP_temperature;BMP_pressure;BME280_temperature;BME280_humidity;BME280_pressure;Samples;Min_cycle;Max_cycle;Signal;HPM_P1;HPM_P2
2023/06/08 00:02:03;;;;;;;0.20;0.20;;;;;;;15.99;100.00;100702.31;4979967;28;20181;-77
2023/06/08 00:04:30;;;;;;;1.27;1.27;;;;;;;15.99;100.00;100698.75;4979499;28;20185;-76
2023/06/08 00:06:57;;;;;;;0.60;0.60;;;;;;;15.99;100.00;100705.06;4979215;28;20182;-77
2023/06/08 00:09:23;;;;;;;1.10;1.00;;;;;;;16.00;100.00;100694.84;4961984;28;20177;-76
2023/06/08 00:11:48;;;;;;;1.77;0.70;;;;;;;16.01;100.00;100702.78;4980373;28;20289;-77
2023/06/08 00:14:17;;;;;;;0.60;0.60;;;;;;;16.06;100.00;100699.03;4962289;28;20201;-77
2023/06/08 00:16:42;;;;;;;1.00;1.00;;;;;;;16.03;100.00;100694.97;4962106;28;20249;-78
2023/06/08 00:19:08;;;;;;;0.60;0.60;;;;;;;16.01;100.00;100699.22;4961841;28;20306;-77
2023/06/08 00:21:34;;;;;;;0.43;0.43;;;;;;;15.98;100.00;100692.44;4962879;28;20189;-77
2023/06/08 00:24:00;;;;;;;5.10;1.90;;;;;;;16.01;100.00;100708.28;4979724;28;20213;-75
2023/06/08 00:26:26;;;;;;;13.83;1.37;;;;;;;16.03;100.00;100697.72;4962088;28;20262;-76
2023/06/08 00:28:51;;;;;;;0.63;0.63;;;;;;;16.02;100.00;100698.06;4961537;28;20181;-76
2023/06/08 00:31:17;;;;;;;0.83;0.83;;;;;;;16.05;100.00;100691.88;4980315;28;20574;-78
2023/06/08 00:33:43;;;;;;;0.00;0.00;;;;;;;16.14;100.00;100689.84;4983674;28;20240;-77
2023/06/08 00:36:09;;;;;;;0.00;0.00;;;;;;;16.22;100.00;100694.44;4985506;28;20182;-78
2023/06/08 00:38:34;;;;;;;1.23;1.13;;;;;;;16.20;100.00;100691.22;4985169;28;20196;-76
2023/06/08 00:41:00;;;;;;;0.00;0.00;;;;;;;16.18;100.00;100688.00;4984233;28;20355;-78
2023/06/08 00:43:25;;;;;;;0.40;0.40;;;;;;;16.21;100.00;100684.56;4981302;28;20282;-77
2023/06/08 00:45:53;;;;;;;2.33;1.13;;;;;;;16.18;100.00;100690.75;4960974;28;20189;-77
2023/06/08 00:48:18;;;;;;;0.87;0.87;;;;;;;16.17;100.00;100688.34;4961191;28;20186;-77
2023/06/08 00:50:46;;;;;;;1.83;1.73;;;;;;;16.06;100.00;100685.25;4962167;28;20178;-76
2023/06/08 00:53:12;;;;;;;0.70;0.70;;;;;;;16.05;100.00;100684.41;4979904;28;20683;-76
2023/06/08 00:55:38;;;;;;;0.47;0.47;;;;;;;15.97;100.00;100688.09;4979781;28;20241;-77
2023/06/08 00:58:04;;;;;;;0.30;0.30;;;;;;;15.97;100.00;100685.31;4980333;28;20670;-77
2023/06/08 01:00:29;;;;;;;0.97;0.97;;;;;;;15.89;100.00;100683.47;4979661;28;20680;-76
2023/06/08 01:02:55;;;;;;;0.43;0.43;;;;;;;15.92;100.00;100674.53;4979893;28;20208;-76
2023/06/08 01:05:22;;;;;;;0.90;0.83;;;;;;;15.96;100.00;100677.41;4963117;28;20220;-76
2023/06/08 01:08:14;;;;;;;0.93;0.93;;;;;;;15.93;100.00;100667.88;4962988;28;20182;-76
2023/06/08 01:10:50;;;;;;;0.07;0.07;;;;;;;15.99;100.00;100665.69;4979480;28;20188;-77
2023/06/08 01:13:25;;;;;;;0.40;0.33;;;;;;;16.00;100.00;100672.81;4973889;28;20236;-76
2023/06/08 01:16:00;;;;;;;1.30;1.30;;;;;;;16.02;100.00;100668.56;4962415;28;20231;-78
2023/06/08 01:18:27;;;;;;;0.00;0.00;;;;;;;15.99;100.00;100668.44;4962281;28;20276;-77
2023/06/08 01:21:11;;;;;;;0.13;0.13;;;;;;;16.01;100.00;100669.72;4979620;28;20202;-76
2023/06/08 01:23:55;;;;;;;0.00;0.00;;;;;;;15.95;100.00;100671.09;4980057;28;20369;-77
2023/06/08 01:26:21;;;;;;;0.77;0.77;;;;;;;15.99;100.00;100660.19;4979637;28;20177;-77
2023/06/08 01:28:48;;;;;;;0.10;0.10;;;;;;;15.90;100.00;100668.53;4979883;28;20648;-76
2023/06/08 01:31:13;;;;;;;0.20;0.20;;;;;;;15.90;100.00;100665.78;4962486;28;20237;-78
2023/06/08 01:33:38;;;;;;;0.63;0.63;;;;;;;15.87;99.35;100677.50;4980713;28;20213;-76
2023/06/08 01:36:28;;;;;;;0.20;0.07;;;;;;;15.83;98.56;100664.75;4962853;28;20186;-76
2023/06/08 01:39:12;;;;;;;0.23;0.23;;;;;;;15.86;97.45;100670.38;4980023;28;20198;-77
2023/06/08 01:41:44;;;;;;;0.00;0.00;;;;;;;15.86;97.16;100667.63;4963128;28;20189;-76
2023/06/08 01:44:14;;;;;;;0.00;0.00;;;;;;;15.89;96.43;100674.38;4979539;28;20212;-76
2023/06/08 01:46:40;;;;;;;0.00;0.00;;;;;;;15.91;95.79;100677.59;4955711;29;20213;-76
2023/06/08 01:49:06;;;;;;;3.43;1.27;;;;;;;15.91;96.43;100666.59;4980094;28;20181;-77
2023/06/08 01:51:35;;;;;;;0.00;0.00;;;;;;;15.72;96.59;100669.88;4980669;28;20174;-77
2023/06/08 01:54:08;;;;;;;0.10;0.10;;;;;;;15.61;96.49;100663.19;4960527;28;20249;-75
2023/06/08 01:56:35;;;;;;;1.90;1.43;;;;;;;15.51;97.11;100647.06;4977947;28;20220;-77
2023/06/08 01:59:01;;;;;;;0.83;0.83;;;;;;;15.42;97.93;100642.44;4978199;28;20185;-78
2023/06/08 02:01:26;;;;;;;0.00;0.00;;;;;;;15.35;98.99;100646.91;4961729;28;20177;-77
2023/06/08 02:03:52;;;;;;;0.97;0.97;;;;;;;15.32;99.29;100648.38;4977480;28;20277;-76
2023/06/08 02:06:18;;;;;;;1.07;0.30;;;;;;;15.15;100.00;100646.59;4973755;28;20181;-78
2023/06/08 02:08:43;;;;;;;2.73;2.47;;;;;;;14.93;100.00;100641.44;4978389;28;20205;-77
2023/06/08 02:11:10;;;;;;;1.10;1.03;;;;;;;14.80;100.00;100651.56;4980298;28;20174;-77
2023/06/08 02:13:39;;;;;;;2.93;1.97;;;;;;;14.63;100.00;100646.19;4962196;28;20213;-77
2023/06/08 02:16:04;;;;;;;0.53;0.53;;;;;;;14.56;100.00;100646.69;4979468;28;20182;-77
2023/06/08 02:18:30;;;;;;;0.07;0.07;;;;;;;14.57;100.00;100633.75;4962159;28;20600;-77
2023/06/08 02:20:56;;;;;;;0.40;0.40;;;;;;;14.65;100.00;100640.34;4980298;28;20202;-78
2023/06/08 02:23:21;;;;;;;1.57;1.40;;;;;;;14.54;100.00;100632.47;4964919;28;20205;-77
2023/06/08 02:25:50;;;;;;;0.10;0.10;;;;;;;14.51;100.00;100627.66;4965836;28;20241;-77
2023/06/08 02:28:16;;;;;;;5.93;2.73;;;;;;;14.44;100.00;100629.31;4966942;28;20178;-77
2023/06/08 02:30:41;;;;;;;8.27;1.80;;;;;;;14.38;100.00;100630.63;4983661;28;20210;-77
2023/06/08 02:33:07;;;;;;;1.20;1.20;;;;;;;14.25;100.00;100622.28;4983757;28;20723;-77
2023/06/08 02:35:33;;;;;;;0.60;0.60;;;;;;;14.20;100.00;100622.47;4983588;28;20174;-75
2023/06/08 02:37:58;;;;;;;0.50;0.50;;;;;;;14.17;100.00;100622.31;4984169;28;20372;-78
2023/06/08 02:40:24;;;;;;;1.50;1.07;;;;;;;14.17;100.00;100627.81;4984230;28;20206;-78
2023/06/08 02:42:49;;;;;;;8.17;2.77;;;;;;;14.13;100.00;100629.59;4984328;28;20202;-76
2023/06/08 02:45:14;;;;;;;1.43;1.40;;;;;;;14.09;100.00;100623.97;4966446;28;20221;-78
2023/06/08 02:47:40;;;;;;;3.83;3.03;;;;;;;14.05;100.00;100631.28;4966860;28;20265;-77
2023/06/08 02:50:05;;;;;;;0.00;0.00;;;;;;;14.12;100.00;100639.78;4983442;28;20182;-78
2023/06/08 02:52:31;;;;;;;0.67;0.67;;;;;;;14.14;100.00;100623.78;4966716;28;20260;-78
2023/06/08 02:54:56;;;;;;;0.83;0.83;;;;;;;14.16;100.00;100631.69;4983656;28;20645;-78
2023/06/08 02:57:21;;;;;;;0.00;0.00;;;;;;;14.14;100.00;100637.53;4985591;28;20188;-78
2023/06/08 02:59:47;;;;;;;0.70;0.70;;;;;;;14.14;100.00;100654.00;4966800;28;20226;-78
2023/06/08 03:02:12;;;;;;;1.67;1.60;;;;;;;14.05;100.00;100646.94;4984740;28;20269;-76
2023/06/08 03:04:38;;;;;;;0.13;0.13;;;;;;;14.02;100.00;100659.38;4984282;28;20219;-78
2023/06/08 03:07:03;;;;;;;0.17;0.17;;;;;;;14.04;100.00;100659.09;4983898;28;20192;-77
2023/06/08 03:09:29;;;;;;;0.10;0.10;;;;;;;13.96;100.00;100658.78;4966153;28;20178;-77
2023/06/08 03:11:55;;;;;;;1.37;1.27;;;;;;;14.04;100.00;100657.13;4966092;28;20221;-76
2023/06/08 03:14:21;;;;;;;1.13;1.13;;;;;;;13.86;100.00;100655.56;4982927;28;20178;-77
2023/06/08 03:16:47;;;;;;;3.43;1.33;;;;;;;13.74;100.00;100656.25;4982731;28;20182;-77
2023/06/08 03:19:14;;;;;;;0.67;0.67;;;;;;;13.76;100.00;100661.44;4964336;28;20225;-78
2023/06/08 03:21:41;;;;;;;0.07;0.07;;;;;;;13.69;100.00;100657.22;4982175;28;20182;-78
2023/06/08 03:24:07;;;;;;;0.97;0.97;;;;;;;13.55;100.00;100653.88;4964562;28;20201;-75
2023/06/08 03:26:33;;;;;;;2.43;1.50;;;;;;;13.58;100.00;100649.66;4964200;28;20245;-76
2023/06/08 03:28:58;;;;;;;2.27;1.37;;;;;;;13.55;100.00;100650.31;4978778;28;20215;-78
2023/06/08 03:31:24;;;;;;;1.80;1.70;;;;;;;13.51;100.00;100647.44;4958794;28;20182;-77
2023/06/08 03:33:49;;;;;;;2.20;2.10;;;;;;;13.48;100.00;100639.84;4981051;28;20217;-76
2023/06/08 03:36:15;;;;;;;1.43;0.57;;;;;;;13.47;100.00;100649.22;4977746;28;20178;-78
2023/06/08 03:38:41;;;;;;;0.83;0.73;;;;;;;13.49;100.00;100649.69;4960710;28;20197;-78
2023/06/08 03:41:07;;;;;;;1.53;0.80;;;;;;;13.47;100.00;100659.41;4981726;28;20271;-77
2023/06/08 03:43:34;;;;;;;0.83;0.83;;;;;;;13.48;100.00;100661.81;4964723;28;20210;-78
2023/06/08 03:45:59;;;;;;;0.77;0.77;;;;;;;13.48;100.00;100658.25;4963907;28;20177;-78
2023/06/08 03:48:25;;;;;;;0.57;0.57;;;;;;;13.39;100.00;100658.25;4981628;28;20205;-78
2023/06/08 03:50:51;;;;;;;0.20;0.20;;;;;;;13.40;100.00;100665.34;4982337;28;20542;-76
2023/06/08 03:53:17;;;;;;;0.50;0.50;;;;;;;13.42;100.00;100663.09;4982548;28;20619;-78
2023/06/08 03:55:42;;;;;;;4.77;1.10;;;;;;;13.39;100.00;100663.75;4981634;28;20192;-76
2023/06/08 03:58:08;;;;;;;1.97;1.87;;;;;;;13.39;100.00;100669.25;4963714;28;20192;-76
2023/06/08 04:00:33;;;;;;;6.30;2.53;;;;;;;13.36;100.00;100665.22;4975920;28;20202;-78
2023/06/08 04:03:00;;;;;;;1.00;1.00;;;;;;;13.29;100.00;100675.84;4976085;28;20577;-77
2023/06/08 04:05:25;;;;;;;3.43;2.10;;;;;;;13.24;100.00;100678.78;4961027;28;20193;-79
2023/06/08 04:07:51;;;;;;;1.17;1.17;;;;;;;13.19;100.00;100667.97;4978070;28;20186;-77
2023/06/08 04:10:17;;;;;;;1.87;1.77;;;;;;;13.15;100.00;100668.88;4978666;28;20201;-78
2023/06/08 04:12:43;;;;;;;25.40;0.97;;;;;;;13.16;100.00;100659.53;4972670;28;20205;-77
2023/06/08 04:15:09;;;;;;;1.03;1.03;;;;;;;13.19;100.00;100665.22;4955814;28;20284;-77
2023/06/08 04:17:34;;;;;;;3.93;1.73;;;;;;;13.29;100.00;100683.28;4955715;28;20193;-77
2023/06/08 04:20:00;;;;;;;1.80;1.70;;;;;;;13.24;100.00;100669.72;4972712;28;20221;-77
2023/06/08 04:22:27;;;;;;;0.60;0.60;;;;;;;13.31;100.00;100672.81;4973054;28;20206;-76
2023/06/08 04:24:52;;;;;;;9.13;1.80;;;;;;;13.28;100.00;100674.25;4972917;28;20200;-76
2023/06/08 04:27:19;;;;;;;11.67;2.67;;;;;;;13.21;100.00;100671.19;4973180;28;20556;-80
2023/06/08 04:29:44;;;;;;;0.00;0.00;;;;;;;13.20;100.00;100669.59;4954687;28;20606;-77
2023/06/08 04:32:10;;;;;;;0.00;0.00;;;;;;;13.28;100.00;100673.44;4973432;28;20232;-77
2023/06/08 04:34:35;;;;;;;0.00;0.00;;;;;;;13.28;100.00;100670.69;4955208;28;20181;-76
2023/06/08 04:37:01;;;;;;;0.77;0.77;;;;;;;13.27;100.00;100680.06;4955417;28;20276;-78
2023/06/08 04:39:27;;;;;;;1.60;1.50;;;;;;;13.28;100.00;100673.44;4955607;28;20213;-77
2023/06/08 04:41:53;;;;;;;1.20;1.20;;;;;;;13.23;100.00;100674.41;4955320;28;20185;-76
2023/06/08 04:44:20;;;;;;;0.33;0.33;;;;;;;13.25;100.00;100680.38;4972800;28;20182;-76
2023/06/08 04:46:46;;;;;;;0.77;0.53;;;;;;;13.29;100.00;100675.06;4973305;28;20177;-78
2023/06/08 04:49:14;;;;;;;1.87;1.70;;;;;;;13.32;100.00;100677.97;4973943;28;20556;-78
2023/06/08 04:51:40;;;;;;;1.70;1.50;;;;;;;13.35;100.00;100677.31;4958022;28;20261;-77
2023/06/08 04:54:12;;;;;;;0.30;0.30;;;;;;;13.37;100.00;100682.47;4975952;28;20711;-77
2023/06/08 04:56:41;;;;;;;0.23;0.23;;;;;;;13.35;100.00;100671.03;4973399;28;20664;-76
2023/06/08 04:59:06;;;;;;;0.00;0.00;;;;;;;13.44;100.00;100671.81;4972771;28;20641;-78
2023/06/08 05:01:32;;;;;;;0.00;0.00;;;;;;;13.55;100.00;100680.50;4973124;28;20181;-76
2023/06/08 05:03:57;;;;;;;0.10;0.10;;;;;;;13.63;100.00;100668.72;4974801;28;20220;-77
2023/06/08 05:06:22;;;;;;;1.33;1.33;;;;;;;13.62;100.00;100689.09;4973279;28;20664;-78
2023/06/08 05:08:48;;;;;;;0.97;0.93;;;;;;;13.58;100.00;100685.34;4972030;28;20273;-77
2023/06/08 05:11:13;;;;;;;0.20;0.20;;;;;;;13.59;100.00;100679.53;4955535;28;20182;-77
2023/06/08 05:13:38;;;;;;;0.30;0.30;;;;;;;13.61;100.00;100685.53;4973244;28;20206;-77
2023/06/08 05:16:04;;;;;;;4.93;2.07;;;;;;;13.61;100.00;100682.78;4973153;28;20185;-76
2023/06/08 05:18:29;;;;;;;2.53;1.80;;;;;;;13.61;100.00;100680.03;4974786;28;20244;-78
2023/06/08 05:20:55;;;;;;;0.57;0.57;;;;;;;13.51;100.00;100674.88;4960095;28;20330;-78
2023/06/08 05:23:20;;;;;;;5.00;2.50;;;;;;;13.59;100.00;100681.47;4976710;28;20264;-77
2023/06/08 05:25:46;;;;;;;0.50;0.50;;;;;;;13.57;100.00;100670.81;4961549;28;20190;-78
2023/06/08 05:28:11;;;;;;;0.23;0.23;;;;;;;13.61;100.00;100679.22;4979409;28;20185;-77
2023/06/08 05:30:36;;;;;;;12.07;3.97;;;;;;;13.58;100.00;100674.38;4977818;28;20173;-78
2023/06/08 05:33:02;;;;;;;0.17;0.17;;;;;;;13.59;100.00;100673.22;4960131;28;20221;-77
2023/06/08 05:35:28;;;;;;;0.20;0.20;;;;;;;13.64;100.00;100675.84;4960006;28;20225;-77
2023/06/08 05:37:53;;;;;;;1.30;1.30;;;;;;;13.65;100.00;100664.53;4977464;28;20301;-77
2023/06/08 05:40:19;;;;;;;0.10;0.10;;;;;;;13.74;100.00;100669.16;4976960;28;20252;-77
2023/06/08 05:42:44;;;;;;;0.43;0.40;;;;;;;13.79;100.00;100661.56;4976411;28;20198;-77
2023/06/08 05:45:11;;;;;;;0.73;0.73;;;;;;;13.78;100.00;100667.41;4959070;28;20186;-78
2023/06/08 05:47:37;;;;;;;2.40;0.87;;;;;;;13.83;100.00;100675.44;4976232;28;20189;-77
2023/06/08 05:50:02;;;;;;;0.40;0.40;;;;;;;13.83;100.00;100664.47;4975641;28;20679;-77
2023/06/08 05:52:27;;;;;;;1.33;1.00;;;;;;;13.80;100.00;100665.13;4976058;28;20210;-77
2023/06/08 05:54:53;;;;;;;0.00;0.00;;;;;;;13.82;100.00;100666.41;4976373;28;20186;-77
2023/06/08 05:57:19;;;;;;;1.07;1.07;;;;;;;13.90;100.00;100662.03;4960299;28;20232;-78
2023/06/08 05:59:44;;;;;;;0.50;0.50;;;;;;;13.87;100.00;100662.66;4977418;28;20206;-77
2023/06/08 06:02:09;;;;;;;0.43;0.43;;;;;;;13.90;100.00;100664.78;4978253;28;20261;-76
2023/06/08 06:04:36;;;;;;;0.70;0.70;;;;;;;13.86;100.00;100655.56;4960799;28;20197;-77
2023/06/08 06:07:01;;;;;;;0.00;0.00;;;;;;;13.90;100.00;100668.34;4979161;28;20202;-77
2023/06/08 06:09:26;;;;;;;0.00;0.00;;;;;;;13.99;100.00;100669.09;4962435;28;20188;-77
2023/06/08 06:11:51;;;;;;;1.03;1.03;;;;;;;14.00;100.00;100676.19;4979124;28;20186;-78
2023/06/08 06:14:17;;;;;;;1.67;1.63;;;;;;;13.96;100.00;100678.00;4962010;28;20584;-77
2023/06/08 06:16:43;;;;;;;0.30;0.30;;;;;;;13.91;100.00;100672.69;4978505;28;20185;-78
2023/06/08 06:19:08;;;;;;;1.40;1.40;;;;;;;13.92;100.00;100679.00;4978721;28;20182;-78
2023/06/08 06:21:33;;;;;;;0.37;0.37;;;;;;;13.92;100.00;100681.75;4979371;28;20241;-77
2023/06/08 06:23:59;;;;;;;3.70;2.80;;;;;;;13.90;100.00;100684.00;4962126;28;20269;-76
2023/06/08 06:26:25;;;;;;;3.97;3.13;;;;;;;13.98;100.00;100685.91;4979929;28;20264;-78
2023/06/08 06:28:50;;;;;;;1.10;0.93;;;;;;;14.02;100.00;100675.06;4978584;28;20452;-77
2023/06/08 06:31:16;;;;;;;0.17;0.17;;;;;;;14.08;100.00;100685.56;4960997;28;20185;-77
2023/06/08 06:33:41;;;;;;;1.47;1.47;;;;;;;14.17;100.00;100674.50;4961007;28;20708;-76
2023/06/08 06:36:06;;;;;;;2.57;1.57;;;;;;;14.24;100.00;100681.13;4979343;28;20645;-77
2023/06/08 06:38:32;;;;;;;0.93;0.37;;;;;;;14.30;100.00;100688.03;4959031;28;20244;-78
2023/06/08 06:40:57;;;;;;;0.20;0.10;;;;;;;14.49;100.00;100684.13;4977737;28;20241;-77
2023/06/08 06:43:23;;;;;;;0.80;0.80;;;;;;;14.54;100.00;100686.66;4976221;28;20216;-76
2023/06/08 06:45:50;;;;;;;4.50;1.47;;;;;;;14.53;100.00;100690.56;4979977;28;20205;-78
2023/06/08 06:48:22;;;;;;;4.37;1.20;;;;;;;14.53;100.00;100690.56;4949980;28;20222;-79
2023/06/08 06:50:48;;;;;;;3.77;3.43;;;;;;;14.40;100.00;100686.06;4974970;28;20184;-80
2023/06/08 06:53:15;;;;;;;1.40;1.13;;;;;;;14.29;100.00;100686.44;4975721;28;20280;-84
2023/06/08 06:55:41;;;;;;;0.00;0.00;;;;;;;14.42;100.00;100689.28;4976637;28;20570;-82
2023/06/08 06:58:07;;;;;;;0.27;0.27;;;;;;;14.54;100.00;100692.97;4949094;28;20197;-80
2023/06/08 07:00:36;;;;;;;0.60;0.60;;;;;;;14.66;100.00;100689.53;4976049;28;20209;-82
2023/06/08 07:03:06;;;;;;;0.00;0.00;;;;;;;14.74;100.00;100699.63;4957508;28;20220;-80
2023/06/08 07:05:32;;;;;;;0.60;0.60;;;;;;;14.74;100.00;100694.13;4976831;28;20253;-77
2023/06/08 07:07:57;;;;;;;2.23;2.13;;;;;;;14.84;100.00;100693.75;4975880;28;20253;-77
2023/06/08 07:10:22;;;;;;;2.20;2.07;;;;;;;14.86;100.00;100694.22;4975859;28;20178;-77
2023/06/08 07:12:48;;;;;;;12.43;2.90;;;;;;;14.83;100.00;100694.09;4968223;28;20586;-81
2023/06/08 07:15:13;;;;;;;2.70;1.30;;;;;;;14.75;100.00;100697.69;4976580;28;20181;-81
2023/06/08 07:17:39;;;;;;;1.10;1.07;;;;;;;14.84;100.00;100707.50;4958578;28;20228;-83
2023/06/08 07:20:05;;;;;;;0.03;0.03;;;;;;;14.84;100.00;100702.00;4957976;28;20264;-83
2023/06/08 07:22:31;;;;;;;0.10;0.10;;;;;;;14.95;100.00;100693.38;4960826;28;20463;-77
2023/06/08 07:24:56;;;;;;;0.00;0.00;;;;;;;14.98;100.00;100690.75;4962367;28;20192;-78
2023/06/08 07:27:21;;;;;;;0.00;0.00;;;;;;;15.17;100.00;100699.34;4981597;28;20663;-78
2023/06/08 07:29:47;;;;;;;0.00;0.00;;;;;;;15.20;100.00;100700.63;4965491;28;20248;-78
2023/06/08 07:32:13;;;;;;;0.00;0.00;;;;;;;15.21;100.00;100712.44;4982922;28;20680;-78
2023/06/08 07:34:38;;;;;;;0.00;0.00;;;;;;;15.26;100.00;100704.78;4982818;28;20186;-76
2023/06/08 07:37:04;;;;;;;0.20;0.20;;;;;;;15.45;100.00;100715.31;4980982;28;20186;-77
2023/06/08 07:39:29;;;;;;;0.00;0.00;;;;;;;15.69;100.00;100709.94;4962603;28;20272;-76
2023/06/08 07:41:55;;;;;;;0.00;0.00;;;;;;;15.81;100.00;100705.63;4978860;28;20178;-76
2023/06/08 07:44:20;;;;;;;5.07;2.13;;;;;;;15.95;100.00;100695.91;4975965;28;20256;-76
2023/06/08 07:46:45;;;;;;;1.03;1.03;;;;;;;15.95;100.00;100695.09;4973735;28;20186;-76
2023/06/08 07:49:11;;;;;;;1.10;1.10;;;;;;;15.94;100.00;100699.78;4974043;28;20691;-76
2023/06/08 07:51:37;;;;;;;0.00;0.00;;;;;;;15.89;100.00;100708.25;4974561;28;20610;-77
2023/06/08 07:54:02;;;;;;;0.00;0.00;;;;;;;15.90;100.00;100704.34;4974317;28;20695;-76
2023/06/08 07:56:28;;;;;;;0.00;0.00;;;;;;;15.88;100.00;100698.38;4975012;28;20268;-76
2023/06/08 07:58:53;;;;;;;0.30;0.30;;;;;;;16.02;100.00;100711.84;4957004;28;20644;-76
2023/06/08 08:01:18;;;;;;;0.80;0.80;;;;;;;16.07;100.00;100703.38;4974324;28;20687;-76
2023/06/08 08:03:43;;;;;;;1.50;1.50;;;;;;;16.02;100.00;100693.38;4957352;28;20211;-76
2023/06/08 08:06:09;;;;;;;0.50;0.50;;;;;;;15.99;99.82;100696.81;4957052;28;20644;-76
2023/06/08 08:08:34;;;;;;;2.80;2.57;;;;;;;15.97;100.00;100698.31;4956771;28;20182;-76
2023/06/08 08:10:59;;;;;;;5.87;3.30;;;;;;;15.96;100.00;100689.22;4974762;28;20253;-77
2023/06/08 08:13:25;;;;;;;0.53;0.53;;;;;;;15.93;100.00;100680.84;4974661;28;20213;-76
2023/06/08 08:15:50;;;;;;;3.90;2.23;;;;;;;15.92;100.00;100682.81;4975320;28;20189;-77
2023/06/08 08:18:15;;;;;;;0.40;0.40;;;;;;;15.92;100.00;100687.50;4975135;28;20656;-76
2023/06/08 08:20:41;;;;;;;0.00;0.00;;;;;;;15.93;100.00;100680.84;4957831;28;20218;-77
2023/06/08 08:23:07;;;;;;;10.73;1.93;;;;;;;15.97;100.00;100673.50;4976556;28;20213;-77
2023/06/08 08:25:33;;;;;;;3.47;3.17;;;;;;;15.96;100.00;100667.19;4978515;28;20177;-76
2023/06/08 08:27:58;;;;;;;1.13;1.13;;;;;;;15.87;100.00;100673.94;4958143;28;20185;-77
2023/06/08 08:30:23;;;;;;;0.33;0.33;;;;;;;15.96;100.00;100669.13;4977001;28;20543;-77
2023/06/08 08:32:49;;;;;;;0.03;0.03;;;;;;;15.99;100.00;100685.00;4979399;28;20224;-77
2023/06/08 08:35:14;;;;;;;0.00;0.00;;;;;;;16.00;100.00;100687.41;4980815;28;20189;-76
2023/06/08 08:37:42;;;;;;;1.43;1.33;;;;;;;16.16;100.00;100695.00;4973695;28;20182;-78
2023/06/08 08:40:09;;;;;;;0.33;0.33;;;;;;;16.11;100.00;100684.19;4975726;28;20202;-78
2023/06/08 08:42:41;;;;;;;0.00;0.00;;;;;;;16.17;100.00;100691.91;4959075;28;20205;-76
2023/06/08 08:45:09;;;;;;;0.20;0.20;;;;;;;16.20;100.00;100693.16;4978343;28;20213;-77
2023/06/08 08:47:37;;;;;;;0.00;0.00;;;;;;;16.22;100.00;100694.44;4979043;28;20564;-77
2023/06/08 08:50:06;;;;;;;0.00;0.00;;;;;;;16.22;100.00;100704.66;4960818;28;20185;-76
2023/06/08 08:52:37;;;;;;;0.00;0.00;;;;;;;16.44;100.00;100706.97;4979136;28;20205;-76
2023/06/08 08:55:04;;;;;;;0.20;0.20;;;;;;;16.59;100.00;100702.72;4965965;28;20193;-78
2023/06/08 08:57:31;;;;;;;1.27;1.17;;;;;;;16.56;100.00;100692.38;4983399;28;20188;-78
2023/06/08 08:59:57;;;;;;;0.00;0.00;;;;;;;16.48;100.00;100690.53;4965638;28;20287;-78
2023/06/08 09:02:24;;;;;;;1.30;1.30;;;;;;;16.48;100.00;100685.81;4962922;28;20645;-76
2023/06/08 09:04:53;;;;;;;0.20;0.20;;;;;;;16.46;100.00;100693.63;4981070;28;20181;-77
2023/06/08 09:07:20;;;;;;;0.00;0.00;;;;;;;16.50;100.00;100689.06;4975656;28;20182;-76
2023/06/08 09:10:21;;;;;;;1.03;1.03;;;;;;;16.56;100.00;100697.91;4956875;28;20607;-76
2023/06/08 09:12:48;;;;;;;0.00;0.00;;;;;;;16.48;100.00;100699.59;4954820;28;20202;-77
2023/06/08 09:15:37;;;;;;;2.13;1.63;;;;;;;16.53;100.00;100701.34;4957180;28;20198;-77
2023/06/08 09:18:16;;;;;;;10.10;2.73;;;;;;;16.39;100.00;100707.22;4979703;28;20209;-76
2023/06/08 09:20:42;;;;;;;0.67;0.67;;;;;;;16.39;100.00;100706.41;4960375;28;20300;-75
2023/06/08 09:23:22;;;;;;;4.53;1.57;;;;;;;16.23;100.00;100703.53;4979753;28;20240;-77
2023/06/08 09:25:48;;;;;;;0.00;0.00;;;;;;;16.17;100.00;100707.63;4980274;28;20186;-78
2023/06/08 09:28:16;;;;;;;0.07;0.07;;;;;;;16.25;100.00;100699.28;4979744;28;20186;-78
2023/06/08 09:30:44;;;;;;;0.10;0.10;;;;;;;16.23;100.00;100706.28;4980320;28;20182;-76
2023/06/08 09:33:24;;;;;;;0.67;0.67;;;;;;;16.25;100.00;100698.47;4980157;28;20224;-77
2023/06/08 09:35:56;;;;;;;1.17;1.10;;;;;;;16.31;100.00;100697.88;4962881;28;20205;-77
2023/06/08 09:38:21;;;;;;;0.47;0.47;;;;;;;16.45;100.00;100697.53;4981205;28;20273;-77
2023/06/08 09:40:49;;;;;;;2.30;2.20;;;;;;;16.55;100.00;100696.28;4979990;28;20710;-76
2023/06/08 09:43:30;;;;;;;0.40;0.40;;;;;;;16.50;100.00;100689.06;4980828;28;20705;-77
2023/06/08 09:45:55;;;;;;;1.30;1.30;;;;;;;16.54;100.00;100698.25;4981036;28;20178;-77
2023/06/08 09:48:21;;;;;;;8.70;3.23;;;;;;;16.51;100.00;100704.47;4980080;28;20189;-78
2023/06/08 09:50:46;;;;;;;1.17;1.17;;;;;;;16.42;100.00;100711.22;4979710;28;20223;-78
2023/06/08 09:53:12;;;;;;;2.23;2.07;;;;;;;16.27;100.00;100699.72;4972834;28;20214;-76
2023/06/08 09:55:38;;;;;;;2.23;2.13;;;;;;;16.20;100.00;100702.25;4979875;28;20221;-77
2023/06/08 09:58:04;;;;;;;2.27;2.10;;;;;;;16.17;100.00;100707.63;4980207;28;20240;-76
2023/06/08 10:00:30;;;;;;;2.20;2.10;;;;;;;16.25;100.00;100701.22;4980835;28;20214;-77
2023/06/08 10:03:19;;;;;;;3.10;2.80;;;;;;;16.33;100.00;100698.34;4964180;28;20213;-76
2023/06/08 10:05:46;;;;;;;0.80;0.80;;;;;;;16.18;100.00;100682.47;4980677;28;20696;-78
2023/06/08 10:08:18;;;;;;;1.73;1.63;;;;;;;16.17;100.00;100689.13;4963748;28;20611;-78
2023/06/08 10:10:44;;;;;;;3.03;1.07;;;;;;;16.08;100.00;100687.66;4982563;28;20425;-78
2023/06/08 10:13:11;;;;;;;3.30;2.87;;;;;;;16.14;100.00;100687.06;4982008;28;20440;-78
2023/06/08 10:15:36;;;;;;;2.47;2.27;;;;;;;16.21;100.00;100695.59;4975002;28;20183;-76
2023/06/08 10:18:05;;;;;;;7.90;3.90;;;;;;;16.17;100.00;100691.09;4981291;28;20208;-78
2023/06/08 10:20:32;;;;;;;3.20;3.00;;;;;;;16.05;100.00;100684.41;4980425;28;20935;-77
2023/06/08 10:22:58;;;;;;;6.50;5.00;;;;;;;16.01;100.00;100686.25;4980372;28;20315;-77
2023/06/08 10:25:28;;;;;;;7.57;4.37;;;;;;;16.08;100.00;100680.19;4980345;28;20588;-78
2023/06/08 10:27:54;;;;;;;0.10;0.10;;;;;;;16.18;100.00;100678.91;4978784;28;20182;-78
2023/06/08 10:30:28;;;;;;;1.67;0.67;;;;;;;16.35;100.00;100675.97;4962670;28;20188;-78
2023/06/08 10:32:57;;;;;;;1.80;1.73;;;;;;;16.34;100.00;100674.31;4960373;28;20593;-78
2023/06/08 10:35:23;;;;;;;0.13;0.13;;;;;;;16.49;100.00;100664.56;4979975;28;20192;-78
2023/06/08 10:37:48;;;;;;;0.00;0.00;;;;;;;16.64;100.00;100672.97;4960808;28;20190;-78
2023/06/08 10:40:14;;;;;;;0.73;0.73;;;;;;;16.88;100.00;100665.81;4978544;28;20233;-78
2023/06/08 10:42:58;;;;;;;0.20;0.20;;;;;;;17.11;100.00;100666.09;4963818;28;20206;-76
2023/06/08 10:45:33;;;;;;;0.67;0.67;;;;;;;17.21;100.00;100674.72;4969001;28;20174;-79
2023/06/08 10:48:06;;;;;;;0.67;0.67;;;;;;;17.41;100.00;100669.31;4979390;28;20189;-78
2023/06/08 10:50:37;;;;;;;0.40;0.30;;;;;;;17.43;100.00;100667.81;4977078;28;20192;-78
2023/06/08 10:53:02;;;;;;;4.03;3.73;;;;;;;17.54;100.00;100666.16;4960935;28;20237;-77
2023/06/08 10:55:28;;;;;;;4.37;4.00;;;;;;;17.68;100.00;100670.47;4977698;28;20185;-76
2023/06/08 10:57:54;;;;;;;6.63;2.57;;;;;;;17.62;100.00;100667.13;4960283;28;20189;-78
2023/06/08 11:00:26;;;;;;;4.80;4.40;;;;;;;17.55;100.00;100665.00;4978216;28;20600;-79
2023/06/08 11:02:52;;;;;;;4.57;4.23;;;;;;;17.66;100.00;100662.53;4975474;28;20209;-78
2023/06/08 11:05:18;;;;;;;0.53;0.07;;;;;;;17.74;100.00;100664.34;4968882;28;20185;-79
2023/06/08 11:07:44;;;;;;;1.10;1.00;;;;;;;17.67;100.00;100664.13;4969145;28;20186;-78
2023/06/08 11:10:10;;;;;;;3.93;2.33;;;;;;;17.66;100.00;100662.53;4976947;28;20178;-78
2023/06/08 11:12:35;;;;;;;1.27;1.23;;;;;;;17.73;100.00;100653.66;4976426;28;20237;-78
2023/06/08 11:15:01;;;;;;;0.80;0.80;;;;;;;17.82;100.00;100666.16;4956851;28;20213;-77
2023/06/08 11:17:30;;;;;;;0.17;0.17;;;;;;;17.86;100.00;100660.72;4970830;28;20603;-79